createdAt,value
2019-02-18T00:02:11.977Z,4.20
2019-02-18T00:05:00.240Z,3.84
2019-02-18T00:07:48.268Z,3.84
2019-02-18T00:10:36.202Z,3.79
2019-02-18T00:13:24.209Z,3.71
2019-02-18T00:16:12.867Z,3.89
2019-02-18T00:19:00.986Z,3.92
2019-02-18T00:21:49.394Z,3.85
2019-02-18T00:24:37.530Z,3.43
2019-02-18T00:27:25.735Z,3.60
2019-02-18T00:30:14.090Z,3.52
2019-02-18T00:33:01.861Z,3.17
2019-02-18T00:35:49.967Z,3.36
2019-02-18T00:38:38.140Z,3.14
2019-02-18T00:41:26.101Z,3.03
2019-02-18T00:44:14.489Z,3.05
2019-02-18T00:47:02.099Z,2.93
2019-02-18T00:49:50.006Z,3.00
2019-02-18T00:52:38.159Z,2.90
2019-02-18T00:55:26.220Z,3.33
2019-02-18T00:58:14.862Z,3.57
2019-02-18T01:01:02.816Z,3.53
2019-02-18T01:03:50.726Z,3.52
2019-02-18T01:06:38.739Z,3.60
2019-02-18T01:09:26.765Z,3.55
2019-02-18T01:12:14.721Z,3.43
2019-02-18T01:15:02.914Z,3.32
2019-02-18T01:17:51.179Z,3.32
2019-02-18T01:20:39.009Z,3.23
2019-02-18T01:23:26.789Z,3.04
2019-02-18T01:26:14.610Z,3.01
2019-02-18T01:29:02.630Z,3.25
2019-02-18T01:31:50.544Z,3.34
2019-02-18T01:34:38.637Z,3.33
2019-02-18T01:37:26.784Z,3.20
2019-02-18T01:40:15.397Z,2.96
2019-02-18T01:43:03.430Z,2.93
2019-02-18T01:45:51.512Z,3.08
2019-02-18T01:48:39.355Z,3.13
2019-02-18T01:51:27.276Z,3.16
2019-02-18T01:54:15.383Z,3.07
2019-02-18T01:57:03.344Z,3.06
2019-02-18T01:59:50.891Z,3.00
2019-02-18T02:02:38.870Z,3.03
2019-02-18T02:05:26.850Z,3.05
2019-02-18T02:08:14.379Z,2.92
2019-02-18T02:11:02.452Z,2.71
2019-02-18T02:13:50.547Z,2.58
2019-02-18T02:16:38.833Z,2.77
2019-02-18T02:19:26.805Z,2.78
2019-02-18T02:22:15.001Z,2.78
2019-02-18T02:25:02.888Z,2.78
2019-02-18T02:27:51.101Z,2.86
2019-02-18T02:30:39.054Z,2.86
2019-02-18T02:33:26.967Z,2.77
2019-02-18T02:36:15.151Z,2.68
2019-02-18T02:39:03.920Z,2.65
2019-02-18T02:41:52.052Z,2.47
2019-02-18T02:44:40.194Z,2.58
2019-02-18T02:47:28.012Z,2.35
2019-02-18T02:50:16.047Z,2.20
2019-02-18T02:55:50.783Z,2.34
2019-02-18T02:58:38.614Z,2.43
2019-02-18T03:01:26.697Z,2.57
2019-02-18T03:04:14.555Z,2.30
2019-02-18T03:07:02.647Z,2.23
2019-02-18T03:09:50.602Z,2.11
2019-02-18T03:12:39.012Z,2.30
2019-02-18T03:15:27.067Z,2.16
2019-02-18T03:18:15.308Z,1.95
2019-02-18T03:21:03.241Z,1.57
2019-02-18T03:23:51.597Z,1.77
2019-02-18T03:26:39.531Z,1.77
2019-02-18T03:30:03.703Z,1.77
2019-02-18T03:32:55.462Z,1.70
2019-02-18T03:35:43.332Z,1.76
2019-02-18T03:38:32.172Z,1.98
2019-02-18T03:41:20.270Z,2.11
2019-02-18T03:44:08.411Z,2.21
2019-02-18T03:46:56.504Z,2.14
2019-02-18T03:49:44.334Z,2.15
2019-02-18T03:52:31.989Z,2.02
2019-02-18T03:55:20.372Z,1.87
2019-02-18T03:58:08.556Z,1.88
2019-02-18T04:00:56.160Z,1.81
2019-02-18T04:03:44.037Z,1.81
2019-02-18T04:06:31.987Z,1.82
2019-02-18T04:09:19.897Z,1.93
2019-02-18T04:12:07.837Z,1.76
2019-02-18T04:14:56.155Z,1.48
2019-02-18T04:17:44.518Z,1.50
2019-02-18T04:20:32.313Z,1.62
2019-02-18T04:23:20.241Z,1.58
2019-02-18T04:26:08.112Z,1.63
2019-02-18T04:28:56.526Z,1.53
2019-02-18T04:31:44.466Z,1.54
2019-02-18T04:34:32.163Z,1.69
2019-02-18T04:37:20.037Z,1.48
2019-02-18T04:40:08.240Z,1.45
2019-02-18T04:42:56.345Z,1.50
2019-02-18T04:45:44.339Z,1.38
2019-02-18T04:48:32.631Z,1.42
2019-02-18T04:51:20.789Z,1.42
2019-02-18T04:54:08.855Z,1.51
2019-02-18T04:56:56.584Z,1.55
2019-02-18T04:59:44.754Z,1.64
2019-02-18T05:02:32.426Z,1.64
2019-02-18T05:05:20.459Z,1.62
2019-02-18T05:08:08.265Z,1.73
2019-02-18T05:10:56.473Z,1.72
2019-02-18T05:13:45.939Z,1.78
2019-02-18T05:16:34.123Z,1.71
2019-02-18T05:19:23.040Z,1.60
2019-02-18T05:22:11.032Z,1.42
2019-02-18T05:24:58.924Z,1.36
2019-02-18T05:27:46.942Z,1.39
2019-02-18T05:30:35.091Z,1.35
2019-02-18T05:33:23.268Z,1.47
2019-02-18T05:36:11.092Z,1.33
2019-02-18T05:38:59.043Z,1.48
2019-02-18T05:41:47.230Z,1.60
2019-02-18T05:44:34.912Z,1.47
2019-02-18T05:47:23.012Z,1.39
2019-02-18T05:50:11.110Z,1.26
2019-02-18T05:52:59.071Z,1.36
2019-02-18T05:55:46.894Z,1.60
2019-02-18T05:58:35.075Z,1.59
2019-02-18T06:01:23.422Z,1.21
2019-02-18T06:04:11.563Z,1.02
2019-02-18T06:06:59.180Z,0.85
2019-02-18T06:09:47.052Z,0.92
2019-02-18T06:12:35.735Z,0.91
2019-02-18T06:15:23.968Z,1.03
2019-02-18T06:18:11.765Z,0.99
2019-02-18T06:20:59.699Z,1.07
2019-02-18T06:23:47.876Z,0.91
2019-02-18T06:26:36.163Z,0.95
2019-02-18T06:29:24.005Z,0.92
2019-02-18T06:32:12.200Z,0.97
2019-02-18T06:34:59.834Z,1.12
2019-02-18T06:37:47.983Z,1.10
2019-02-18T06:40:35.894Z,1.11
2019-02-18T06:43:23.774Z,1.11
2019-02-18T06:46:37.248Z,0.95
2019-02-18T06:49:26.612Z,1.11
2019-02-18T06:52:14.536Z,0.97
2019-02-18T06:55:02.603Z,1.20
2019-02-18T06:58:18.526Z,1.20
2019-02-18T07:01:13.947Z,1.01
2019-02-18T07:04:20.515Z,1.25
2019-02-18T07:07:23.345Z,1.40
2019-02-18T07:10:20.055Z,1.49
2019-02-18T07:13:07.663Z,1.54
2019-02-18T07:15:55.802Z,1.63
2019-02-18T07:18:44.244Z,1.82
2019-02-18T07:21:32.272Z,2.03
2019-02-18T07:24:20.194Z,2.23
2019-02-18T10:32:37.187Z,9.57
2019-02-18T10:35:26.519Z,9.69
2019-02-18T10:38:14.287Z,9.74
2019-02-18T10:41:06.823Z,9.80
2019-02-18T10:43:54.686Z,9.86
2019-02-18T10:46:41.850Z,9.99
2019-02-18T10:49:29.713Z,10.09
2019-02-18T10:52:17.599Z,10.11
2019-02-18T10:55:06.036Z,10.14
2019-02-18T10:57:54.724Z,10.12
2019-02-18T11:00:42.852Z,10.20
2019-02-18T11:03:30.387Z,10.38
2019-02-18T11:06:18.440Z,10.44
2019-02-18T11:09:09.515Z,10.23
2019-02-18T11:11:57.489Z,10.51
2019-02-18T11:14:44.989Z,10.69
2019-02-18T11:17:38.827Z,10.60
2019-02-18T11:20:22.830Z,10.81
2019-02-18T11:23:11.049Z,10.80
2019-02-18T11:25:58.987Z,10.83
2019-02-18T11:28:46.846Z,10.76
2019-02-18T11:31:34.967Z,10.72
2019-02-18T11:34:23.098Z,10.85
2019-02-18T11:37:11.067Z,10.83
2019-02-18T11:39:58.734Z,10.73
2019-02-18T11:42:47.000Z,10.54
2019-02-18T11:45:35.306Z,10.77
2019-02-18T11:48:23.137Z,10.88
2019-02-18T11:51:11.209Z,11.11
2019-02-18T11:53:59.410Z,11.22
2019-02-18T11:56:47.692Z,11.22
2019-02-18T11:59:35.227Z,11.35
2019-02-18T12:02:22.843Z,11.37
2019-02-18T12:05:12.266Z,11.56
2019-02-18T12:08:00.174Z,11.57
2019-02-18T12:10:48.405Z,11.73
2019-02-18T12:13:36.966Z,11.82
2019-02-18T12:16:25.094Z,11.78
2019-02-18T12:19:13.182Z,11.83
2019-02-18T12:22:01.614Z,11.91
2019-02-18T12:24:49.783Z,11.90
2019-02-18T12:27:37.887Z,11.98
2019-02-18T12:30:25.444Z,12.09
2019-02-18T12:33:14.521Z,11.88
2019-02-18T12:36:02.630Z,11.90
2019-02-18T12:38:50.440Z,12.07
2019-02-18T12:41:47.974Z,12.27
2019-02-18T12:44:27.913Z,12.17
2019-02-18T12:47:16.223Z,12.26
2019-02-18T12:50:04.616Z,12.38
2019-02-18T12:52:52.606Z,11.98
2019-02-18T12:55:40.913Z,12.41
2019-02-18T12:58:28.979Z,12.45
2019-02-18T13:01:17.197Z,12.60
2019-02-18T13:04:05.022Z,12.80
2019-02-18T13:06:53.346Z,12.95
2019-02-18T13:09:41.608Z,13.05
2019-02-18T13:12:29.539Z,13.21
2019-02-18T13:15:17.533Z,13.22
2019-02-18T13:18:05.828Z,13.14
2019-02-18T13:20:54.116Z,13.15
2019-02-18T13:23:42.072Z,13.10
2019-02-18T13:26:29.675Z,13.22
2019-02-18T13:29:17.631Z,13.25
2019-02-18T13:32:05.625Z,13.16
2019-02-18T13:34:53.624Z,13.24
2019-02-18T13:37:41.854Z,13.41
2019-02-18T13:40:29.623Z,13.33
2019-02-18T13:43:17.541Z,13.40
2019-02-18T13:46:05.326Z,13.38
2019-02-18T13:48:52.966Z,13.47
2019-02-18T13:51:41.178Z,13.30
2019-02-18T13:54:28.774Z,13.37
2019-02-18T13:57:16.661Z,13.22
2019-02-18T14:00:04.786Z,13.41
2019-02-18T14:02:52.991Z,13.39
2019-02-18T14:05:41.399Z,13.20
2019-02-18T14:08:29.367Z,13.26
2019-02-18T14:11:17.636Z,13.30
2019-02-18T14:14:05.596Z,13.45
2019-02-18T14:16:53.592Z,13.38
2019-02-18T14:19:41.467Z,13.33
2019-02-18T14:22:29.472Z,13.39
2019-02-18T14:25:17.502Z,13.41
2019-02-18T14:28:05.797Z,13.48
2019-02-18T14:30:53.735Z,13.52
2019-02-18T14:33:41.829Z,13.50
2019-02-18T14:36:30.077Z,13.45
2019-02-18T14:39:24.175Z,13.57
2019-02-18T14:42:12.344Z,13.47
2019-02-18T14:45:00.964Z,13.45
2019-02-18T14:47:48.854Z,13.48
2019-02-18T14:50:36.713Z,13.52
2019-02-18T14:53:24.975Z,13.50
2019-02-18T14:56:15.081Z,13.57
2019-02-18T14:59:03.020Z,13.54
2019-02-18T15:01:51.122Z,13.53
2019-02-18T15:04:39.187Z,13.34
2019-02-18T15:07:27.162Z,13.37
2019-02-18T15:10:15.871Z,13.24
2019-02-18T15:13:03.895Z,13.14
2019-02-18T15:15:52.025Z,13.15
2019-02-18T15:18:40.046Z,13.20
2019-02-18T15:21:28.365Z,13.10
2019-02-18T15:24:16.615Z,13.09
2019-02-18T15:27:04.783Z,13.03
2019-02-18T15:29:53.132Z,12.91
2019-02-18T15:32:41.995Z,12.93
2019-02-18T15:35:29.798Z,12.90
2019-02-18T15:38:17.812Z,12.72
2019-02-18T15:41:05.804Z,12.65
2019-02-18T15:43:53.737Z,12.57
2019-02-18T15:46:44.590Z,12.52
2019-02-18T15:49:33.815Z,12.44
2019-02-18T15:52:22.018Z,12.33
2019-02-18T15:55:10.518Z,12.18
2019-02-18T15:57:58.366Z,12.08
2019-02-18T16:00:46.745Z,11.97
2019-02-18T16:03:34.800Z,11.78
2019-02-18T16:06:22.935Z,11.65
2019-02-18T16:09:10.875Z,11.48
2019-02-18T16:11:59.162Z,11.38
2019-02-18T16:14:47.390Z,11.28
2019-02-18T16:17:35.266Z,11.20
2019-02-18T16:20:23.452Z,11.10
2019-02-18T16:23:11.709Z,11.16
2019-02-18T16:25:59.806Z,10.96
2019-02-18T16:28:47.826Z,10.81
2019-02-18T16:31:35.892Z,10.50
2019-02-18T16:34:24.142Z,10.49
2019-02-18T16:37:12.367Z,10.35
2019-02-18T16:40:00.392Z,10.20
2019-02-18T16:42:48.160Z,10.10
2019-02-18T16:45:36.797Z,9.96
2019-02-18T16:48:25.631Z,9.93
2019-02-18T16:51:13.979Z,9.87
2019-02-18T16:54:02.105Z,9.83
2019-02-18T16:56:49.645Z,9.81
2019-02-18T16:59:37.817Z,9.74
2019-02-18T17:02:25.691Z,9.79
2019-02-18T17:05:13.920Z,9.70
2019-02-18T17:08:01.553Z,9.78
2019-02-18T17:10:49.782Z,9.70
2019-02-18T17:13:37.859Z,9.72
2019-02-18T17:16:26.038Z,9.55
2019-02-18T17:19:13.971Z,9.69
2019-02-18T17:22:02.000Z,9.77
2019-02-18T17:24:49.517Z,9.77
2019-02-18T17:27:37.433Z,9.68
2019-02-18T17:30:25.639Z,9.49
2019-02-18T17:33:13.660Z,9.57
2019-02-18T17:36:01.439Z,9.56
2019-02-18T17:38:49.049Z,9.42
2019-02-18T17:41:36.938Z,9.43
2019-02-18T17:44:25.406Z,9.33
2019-02-18T17:47:13.334Z,9.33
2019-02-18T17:50:01.302Z,9.44
2019-02-18T17:52:49.126Z,9.36
2019-02-18T17:55:37.465Z,9.10
2019-02-18T17:58:25.435Z,9.11
2019-02-18T18:01:13.068Z,9.08
2019-02-18T18:04:01.000Z,8.82
2019-02-18T18:06:49.099Z,8.89
2019-02-18T18:09:36.971Z,8.84
2019-02-18T18:12:24.756Z,8.80
2019-02-18T18:15:13.111Z,8.67
2019-02-18T18:18:01.265Z,8.56
2019-02-18T18:20:49.191Z,8.48
2019-02-18T18:23:37.447Z,8.43
2019-02-18T18:26:25.547Z,8.30
2019-02-18T18:29:13.502Z,8.37
2019-02-18T18:32:01.579Z,8.45
2019-02-18T18:34:49.487Z,8.53
2019-02-18T18:37:37.509Z,8.47
2019-02-18T18:40:25.651Z,8.54
2019-02-18T18:43:13.615Z,8.47
2019-02-18T18:46:01.797Z,8.38
2019-02-18T18:48:50.085Z,8.45
2019-02-18T18:51:38.314Z,8.45
2019-02-18T18:54:26.891Z,8.50
2019-02-18T18:57:15.248Z,8.28
2019-02-18T19:00:04.895Z,7.99
2019-02-18T19:02:52.863Z,7.96
2019-02-18T19:05:41.467Z,7.95
2019-02-18T19:08:29.895Z,7.81
2019-02-18T19:11:17.983Z,7.66
2019-02-18T19:14:06.064Z,7.86
2019-02-18T19:16:54.166Z,7.77
2019-02-18T19:19:42.226Z,7.69
2019-02-18T19:22:30.072Z,7.60
2019-02-18T19:25:18.489Z,7.59
2019-02-18T19:28:06.767Z,7.67
2019-02-18T19:30:54.990Z,7.45
2019-02-18T19:33:42.881Z,7.51
2019-02-18T19:36:32.329Z,7.42
2019-02-18T19:39:20.407Z,7.55
2019-02-18T19:42:08.361Z,7.51
2019-02-18T19:44:56.274Z,7.40
2019-02-18T19:47:44.181Z,7.25
2019-02-18T19:50:31.809Z,7.10
2019-02-18T19:53:20.071Z,7.33
2019-02-18T19:56:08.028Z,7.27
2019-02-18T19:58:56.208Z,7.05
2019-02-18T20:01:44.857Z,6.93
2019-02-18T20:04:32.848Z,7.01
2019-02-18T20:07:20.996Z,6.96
2019-02-18T20:10:09.465Z,7.01
2019-02-18T20:12:57.250Z,6.92
2019-02-18T20:15:47.560Z,6.91
2019-02-18T20:18:35.930Z,6.77
2019-02-18T20:21:24.303Z,6.80
2019-02-18T20:24:12.360Z,6.58
2019-02-18T20:27:00.883Z,6.58
2019-02-18T20:29:49.108Z,6.65
2019-02-18T20:32:37.485Z,6.57
2019-02-18T20:35:25.579Z,6.42
2019-02-18T20:38:13.225Z,6.49
2019-02-18T20:41:01.369Z,6.31
2019-02-18T20:43:49.449Z,6.27
2019-02-18T20:46:37.296Z,6.39
2019-02-18T20:49:25.125Z,6.44
2019-02-18T20:52:13.607Z,6.61
2019-02-18T20:55:01.788Z,6.38
2019-02-18T20:57:49.835Z,6.38
2019-02-18T21:00:37.878Z,6.39
2019-02-18T21:03:26.133Z,6.31
2019-02-18T21:06:14.132Z,6.06
2019-02-18T21:09:02.003Z,5.81
2019-02-18T21:11:49.951Z,5.69
2019-02-18T21:14:38.153Z,5.70
2019-02-18T21:17:26.816Z,5.56
2019-02-18T21:20:15.316Z,5.37
2019-02-18T21:23:02.859Z,5.48
2019-02-18T21:25:51.127Z,5.47
2019-02-18T21:28:39.355Z,5.55
2019-02-18T21:31:27.422Z,5.43
2019-02-18T21:34:15.710Z,5.47
2019-02-18T21:37:03.369Z,5.39
2019-02-18T21:39:51.248Z,5.41
2019-02-18T21:42:40.941Z,5.39
2019-02-18T21:45:29.261Z,5.36
2019-02-18T21:48:17.751Z,5.41
2019-02-18T21:51:05.951Z,5.42
2019-02-18T21:53:53.757Z,5.34
2019-02-18T21:56:41.633Z,5.36
2019-02-18T21:59:29.965Z,5.45
2019-02-18T22:02:17.907Z,5.44
2019-02-18T22:05:06.045Z,5.68
2019-02-18T22:07:54.176Z,5.52
2019-02-18T22:10:42.111Z,5.50
2019-02-18T22:13:30.262Z,5.44
2019-02-18T22:16:17.834Z,5.60
2019-02-18T22:19:05.854Z,5.52
2019-02-18T22:21:53.927Z,5.41
2019-02-18T22:24:41.868Z,5.52
2019-02-18T22:27:29.951Z,5.58
2019-02-18T22:30:18.075Z,5.75
2019-02-18T22:33:05.959Z,5.74
2019-02-18T22:35:54.326Z,5.67
2019-02-18T22:38:41.905Z,5.53
2019-02-18T22:41:30.100Z,5.61
2019-02-18T22:44:17.949Z,5.43
2019-02-18T22:47:06.095Z,5.52
2019-02-18T22:49:53.934Z,5.60
2019-02-18T22:52:41.705Z,5.65
2019-02-18T22:55:30.087Z,5.37
2019-02-18T22:58:18.205Z,5.37
2019-02-18T23:01:06.773Z,5.13
2019-02-18T23:03:54.397Z,5.18
2019-02-18T23:06:42.400Z,5.30
2019-02-18T23:09:30.070Z,5.40
2019-02-18T23:12:17.989Z,5.72
2019-02-18T23:15:06.335Z,5.57
2019-02-18T23:17:54.221Z,5.49
2019-02-18T23:20:42.069Z,5.47
2019-02-18T23:23:30.598Z,5.54
2019-02-18T23:26:19.073Z,5.74
2019-02-18T23:29:06.585Z,5.84
2019-02-18T23:31:54.650Z,5.85
2019-02-18T23:34:42.518Z,5.81
2019-02-18T23:37:30.805Z,5.86
2019-02-18T23:40:18.837Z,5.83
2019-02-18T23:43:06.687Z,5.62
2019-02-18T23:45:54.548Z,5.63
2019-02-18T23:48:42.334Z,5.58
2019-02-18T23:51:29.939Z,5.66
2019-02-18T23:54:17.816Z,5.84
2019-02-18T23:57:05.623Z,5.74
2019-02-18T23:59:53.663Z,5.67
